Time;durP1;ratioP1;P1;durP2;ratioP2;P2;SDS_P1;SDS_P2;PMS_P1;PMS_P2;Temp;Humidity;BMP_temperature;BMP_pressure;BME280_temperature;BME280_humidity;BME280_pressure;Samples;Min_cycle;Max_cycle;Signal;HPM_P1;HPM_P2
2022/01/31 00:00:14;;;;;;;3.25;1.60;;;;;;;0.69;85.87;96133.03;1842929;77;20912;-65
2022/01/31 00:02:42;;;;;;;3.62;1.60;;;;;;;0.68;85.78;96144.66;1844305;77;20876;-65
2022/01/31 00:05:09;;;;;;;2.90;1.40;;;;;;;0.68;85.33;96140.70;1839733;77;21675;-63
2022/01/31 00:07:38;;;;;;;3.15;1.40;;;;;;;0.68;85.39;96140.70;1847457;77;20880;-63
2022/01/31 00:10:08;;;;;;;2.47;1.52;;;;;;;0.68;85.24;96150.69;1849257;77;20943;-64
2022/01/31 00:12:53;;;;;;;2.45;1.32;;;;;;;0.70;85.15;96157.02;1844308;77;20956;-58
2022/01/31 00:15:07;;;;;;;3.15;1.50;;;;;;;0.70;85.54;96166.25;1835182;77;20920;-60
2022/01/31 00:17:33;;;;;;;2.33;1.40;;;;;;;0.69;85.35;96158.06;1839491;77;21669;-60
2022/01/31 00:20:00;;;;;;;3.08;1.40;;;;;;;0.71;85.76;96145.96;1844118;77;20883;-59
2022/01/31 00:22:27;;;;;;;2.37;1.20;;;;;;;0.69;85.81;96167.30;1846222;77;20924;-64
2022/01/31 00:24:55;;;;;;;2.77;1.32;;;;;;;0.67;86.68;96162.83;1840599;77;20924;-62
2022/01/31 00:27:22;;;;;;;3.08;1.67;;;;;;;0.65;86.64;96161.00;1843402;77;21408;-63
2022/01/31 00:29:49;;;;;;;3.45;1.25;;;;;;;0.66;87.04;96183.64;1839510;77;21110;-65
2022/01/31 00:32:16;;;;;;;2.83;1.30;;;;;;;0.65;87.13;96145.98;1842504;77;21457;-62
2022/01/31 00:34:42;;;;;;;2.47;1.05;;;;;;;0.63;86.92;96157.85;1834726;77;20891;-61
2022/01/31 00:37:11;;;;;;;2.95;1.40;;;;;;;0.60;86.76;96166.29;1849191;77;20845;-62
2022/01/31 00:39:37;;;;;;;3.40;1.50;;;;;;;0.60;87.04;96151.27;1839659;77;20876;-60
2022/01/31 00:42:07;;;;;;;2.60;1.40;;;;;;;0.61;87.24;96190.27;1838201;77;21754;-59
2022/01/31 00:44:45;;;;;;;2.12;0.98;;;;;;;0.58;86.79;96173.16;1834336;77;20865;-59
2022/01/31 00:47:16;;;;;;;3.30;1.25;;;;;;;0.58;87.02;96177.63;1850608;77;20955;-64
2022/01/31 00:49:37;;;;;;;3.72;1.50;;;;;;;0.59;86.34;96179.98;1838502;77;20880;-61
2022/01/31 00:52:05;;;;;;;2.37;0.80;;;;;;;0.61;86.25;96176.55;1832885;77;20967;-60
2022/01/31 00:54:31;;;;;;;2.37;1.15;;;;;;;0.61;86.29;96170.52;1837192;77;21700;-63
2022/01/31 00:56:58;;;;;;;2.58;1.20;;;;;;;0.58;86.67;96182.90;1841955;77;20840;-64
2022/01/31 00:59:24;;;;;;;4.20;1.27;;;;;;;0.59;86.96;96197.11;1847411;77;20896;-60
2022/01/31 01:01:51;;;;;;;2.60;1.40;;;;;;;0.58;87.13;96188.97;1849389;77;21273;-65
2022/01/31 01:04:18;;;;;;;1.47;1.00;;;;;;;0.56;87.10;96196.88;1830926;77;20936;-63
2022/01/31 01:06:45;;;;;;;1.30;1.00;;;;;;;0.54;88.18;96190.54;1833254;77;21037;-67
2022/01/31 01:09:12;;;;;;;4.08;1.17;;;;;;;0.49;89.69;96187.16;1842088;77;20829;-64
2022/01/31 01:11:39;;;;;;;3.30;1.27;;;;;;;0.44;89.64;96201.14;1832800;77;20868;-62
2022/01/31 01:14:06;;;;;;;2.70;1.30;;;;;;;0.42;89.86;96193.24;1828906;77;21390;-64
2022/01/31 01:16:34;;;;;;;4.12;1.25;;;;;;;0.42;89.76;96216.95;1840038;77;20955;-62
2022/01/31 01:19:02;;;;;;;2.25;1.60;;;;;;;0.39;89.42;96197.20;1849114;77;21135;-61
2022/01/31 01:21:29;;;;;;;2.25;1.22;;;;;;;0.36;89.85;96195.09;1842106;77;20833;-60
2022/01/31 01:23:56;;;;;;;2.15;1.27;;;;;;;0.33;90.35;96193.54;1849053;77;20939;-62
2022/01/31 01:26:23;;;;;;;3.47;1.25;;;;;;;0.32;90.50;96190.63;1832356;77;21033;-62
2022/01/31 01:28:52;;;;;;;3.47;1.45;;;;;;;0.28;90.77;96185.66;1849353;77;21485;-64
2022/01/31 01:31:19;;;;;;;2.72;1.40;;;;;;;0.26;90.78;96178.55;1849092;77;21084;-60
2022/01/31 01:33:45;;;;;;;2.12;1.27;;;;;;;0.23;90.74;96183.03;1834853;77;20946;-60
2022/01/31 01:36:13;;;;;;;3.10;1.50;;;;;;;0.20;90.62;96193.56;1844619;77;20970;-61
2022/01/31 01:38:40;;;;;;;3.25;1.37;;;;;;;0.21;90.77;96189.89;1839414;77;20888;-62
2022/01/31 01:41:07;;;;;;;2.98;1.35;;;;;;;0.20;90.53;96196.72;1830634;77;20909;-63
2022/01/31 01:43:34;;;;;;;3.45;1.22;;;;;;;0.18;89.82;96199.63;1844603;77;21722;-65
2022/01/31 01:46:01;;;;;;;3.33;1.05;;;;;;;0.21;89.63;96184.63;1838403;77;20877;-63
2022/01/31 01:48:29;;;;;;;2.62;1.47;;;;;;;0.22;88.85;96195.92;1832907;77;21389;-64
2022/01/31 01:50:57;;;;;;;4.97;1.42;;;;;;;0.25;89.01;96194.08;1840205;77;20963;-60
2022/01/31 01:53:25;;;;;;;3.17;1.75;;;;;;;0.24;88.61;96204.34;1824140;77;21570;-64
2022/01/31 01:55:53;;;;;;;2.17;1.30;;;;;;;0.23;88.65;96213.31;1846523;77;21326;-65
2022/01/31 01:58:23;;;;;;;3.83;1.22;;;;;;;0.21;88.51;96228.07;1849054;77;20856;-65
2022/01/31 02:01:02;;;;;;;2.60;1.20;;;;;;;0.20;88.19;96219.10;1839404;77;20825;-66
2022/01/31 02:03:36;;;;;;;5.92;1.25;;;;;;;0.20;88.66;96218.58;1816697;77;20833;-63
2022/01/31 02:06:04;;;;;;;2.12;1.32;;;;;;;0.21;88.48;96218.06;1844475;77;20817;-63
2022/01/31 02:08:40;;;;;;;6.35;1.30;;;;;;;0.21;88.74;96223.33;1849186;77;21117;-68
2022/01/31 02:11:00;;;;;;;2.10;1.20;;;;;;;0.21;88.99;96218.06;1844036;77;20918;-66
2022/01/31 02:13:29;;;;;;;2.60;1.27;;;;;;;0.19;89.39;96228.84;1843959;77;21331;-65
2022/01/31 02:16:01;;;;;;;2.20;1.15;;;;;;;0.16;89.72;96224.65;1815085;77;21448;-62
2022/01/31 02:18:50;;;;;;;4.85;1.52;;;;;;;0.13;89.88;96229.92;1861440;77;21442;-68
2022/01/31 02:21:18;;;;;;;4.62;1.80;;;;;;;0.13;90.41;96242.28;1810194;77;21095;-65
2022/01/31 02:23:45;;;;;;;3.45;1.72;;;;;;;0.13;90.86;96237.02;1836455;77;20959;-61
2022/01/31 02:26:13;;;;;;;3.50;1.87;;;;;;;0.10;91.98;96234.91;1843749;77;21355;-65
2022/01/31 02:28:42;;;;;;;4.67;1.92;;;;;;;0.03;93.72;96239.66;1837948;77;21422;-65
2022/01/31 02:31:09;;;;;;;6.95;1.82;;;;;;;-0.05;95.18;96252.85;1838397;77;20884;-60
2022/01/31 02:33:36;;;;;;;5.03;2.17;;;;;;;-0.11;96.14;96253.38;1842497;77;21084;-66
2022/01/31 02:36:05;;;;;;;3.58;2.10;;;;;;;-0.15;97.31;96256.80;1831395;77;21675;-65
2022/01/31 02:38:31;;;;;;;3.85;2.30;;;;;;;-0.19;98.15;96256.52;1838377;77;20877;-64
2022/01/31 02:41:00;;;;;;;2.65;1.77;;;;;;;-0.19;98.69;96276.80;1848936;77;20923;-64
2022/01/31 02:43:32;;;;;;;2.05;1.77;;;;;;;-0.21;99.25;96282.31;1837825;77;20920;-61
2022/01/31 02:45:59;;;;;;;2.25;1.35;;;;;;;-0.24;100.00;96268.39;1837926;77;21100;-65
2022/01/31 02:48:29;;;;;;;2.08;1.17;;;;;;;-0.28;100.00;96281.78;1838487;77;20941;-60
2022/01/31 02:50:56;;;;;;;1.98;1.20;;;;;;;-0.29;100.00;96284.69;1849113;77;20911;-64
2022/01/31 02:53:29;;;;;;;1.60;0.90;;;;;;;-0.31;100.00;96279.70;1844248;77;20837;-65
2022/01/31 02:56:01;;;;;;;1.32;0.65;;;;;;;-0.38;100.00;96281.00;1844172;77;21421;-66
2022/01/31 02:58:29;;;;;;;1.45;0.50;;;;;;;-0.46;100.00;96286.77;1839480;77;21076;-63
2022/01/31 03:00:57;;;;;;;2.83;0.65;;;;;;;-0.53;100.00;96292.29;1839690;77;20907;-61
2022/01/31 03:03:28;;;;;;;0.72;0.47;;;;;;;-0.64;100.00;96282.81;1841657;77;20904;-63
2022/01/31 03:05:55;;;;;;;0.55;0.30;;;;;;;-0.70;100.00;96279.89;1835850;77;20916;-67
2022/01/31 03:08:24;;;;;;;1.17;0.40;;;;;;;-0.75;100.00;96293.02;1832113;77;20916;-66
2022/01/31 03:10:52;;;;;;;2.33;0.30;;;;;;;-0.78;100.00;96292.25;1839142;77;21183;-63
2022/01/31 03:13:22;;;;;;;0.47;0.30;;;;;;;-0.75;99.58;96300.91;1844061;77;21446;-66
2022/01/31 03:15:52;;;;;;;1.42;0.47;;;;;;;-0.66;100.00;96304.64;1844135;77;21445;-62
2022/01/31 03:18:27;;;;;;;1.80;0.55;;;;;;;-0.60;99.16;96304.90;1843815;77;20879;-62
2022/01/31 03:20:54;;;;;;;0.82;0.35;;;;;;;-0.54;99.33;96296.50;1838682;77;20920;-63
2022/01/31 03:23:21;;;;;;;4.03;0.70;;;;;;;-0.54;99.02;96292.02;1845608;77;21133;-64
2022/01/31 03:25:47;;;;;;;0.60;0.50;;;;;;;-0.53;98.78;96306.75;1832906;77;20875;-61
2022/01/31 03:28:17;;;;;;;2.10;0.55;;;;;;;-0.53;98.55;96315.96;1849093;77;21463;-68
2022/01/31 03:30:44;;;;;;;0.62;0.50;;;;;;;-0.56;98.49;96313.84;1838732;77;20994;-66
2022/01/31 03:33:11;;;;;;;5.12;0.75;;;;;;;-0.58;98.74;96313.31;1843443;77;20914;-63
2022/01/31 03:35:38;;;;;;;1.05;0.47;;;;;;;-0.59;98.26;96323.59;1841284;77;21087;-62
2022/01/31 03:38:05;;;;;;;0.50;0.40;;;;;;;-0.65;97.64;96318.03;1844834;77;20912;-68
2022/01/31 03:40:31;;;;;;;2.30;0.80;;;;;;;-0.68;96.24;96315.91;1843170;77;20824;-66
2022/01/31 03:42:59;;;;;;;1.12;0.55;;;;;;;-0.72;94.51;96310.40;1836158;77;20981;-64
2022/01/31 03:45:32;;;;;;;0.88;0.50;;;;;;;-0.72;93.99;96295.14;1843382;77;21406;-60
2022/01/31 03:47:59;;;;;;;1.98;0.50;;;;;;;-0.75;92.99;96322.73;1832156;77;21068;-64
2022/01/31 03:50:25;;;;;;;0.95;0.50;;;;;;;-0.77;92.73;96314.84;1837976;77;20888;-61
2022/01/31 03:52:53;;;;;;;1.20;0.53;;;;;;;-0.80;92.37;96316.69;1848134;77;20858;-60
2022/01/31 03:55:20;;;;;;;1.15;0.60;;;;;;;-0.81;92.68;96312.47;1840011;77;20892;-63
2022/01/31 03:57:49;;;;;;;0.80;0.45;;;;;;;-0.80;92.86;96314.83;1848749;77;20982;-67
2022/01/31 04:00:33;;;;;;;0.40;0.40;;;;;;;-0.79;93.14;96315.62;1848742;77;21720;-63
2022/01/31 04:03:00;;;;;;;0.95;0.55;;;;;;;-0.77;93.05;96302.49;1833655;77;20857;-64
2022/01/31 04:05:26;;;;;;;1.05;0.60;;;;;;;-0.74;93.07;96309.07;1830115;77;20959;-60
2022/01/31 04:07:53;;;;;;;0.78;0.40;;;;;;;-0.74;92.83;96295.92;1836547;77;20916;-61
2022/01/31 04:10:19;;;;;;;3.10;0.72;;;;;;;-0.72;92.80;96296.45;1829048;77;20938;-60
2022/01/31 04:12:46;;;;;;;3.72;0.80;;;;;;;-0.70;93.06;96304.87;1835751;77;21834;-60
2022/01/31 04:15:13;;;;;;;1.30;0.60;;;;;;;-0.69;92.47;96306.46;1837715;77;20869;-66
2022/01/31 04:17:39;;;;;;;1.37;0.62;;;;;;;-0.67;92.04;96305.67;1849314;77;20895;-62
2022/01/31 04:20:08;;;;;;;1.10;0.70;;;;;;;-0.66;92.28;96309.89;1836075;77;21482;-62
2022/01/31 04:22:45;;;;;;;2.35;0.60;;;;;;;-0.66;92.47;96312.53;1836266;77;20964;-65
2022/01/31 04:25:16;;;;;;;1.15;0.68;;;;;;;-0.68;92.35;96306.70;1841330;76;21089;-66
2022/01/31 04:27:44;;;;;;;6.35;0.68;;;;;;;-0.70;91.61;96318.02;1849527;77;20958;-61
2022/01/31 04:30:06;;;;;;;2.40;0.90;;;;;;;-0.68;91.33;96313.28;1845693;77;21379;-61
2022/01/31 04:32:33;;;;;;;2.08;1.05;;;;;;;-0.65;91.39;96312.77;1840496;77;20825;-65
2022/01/31 04:35:00;;;;;;;2.02;0.80;;;;;;;-0.63;90.71;96310.67;1836970;77;20912;-63
2022/01/31 04:37:26;;;;;;;0.90;0.50;;;;;;;-0.58;90.66;96323.03;1836976;77;21104;-63
2022/01/31 04:39:53;;;;;;;1.40;0.90;;;;;;;-0.57;90.30;96318.85;1838977;77;21399;-63
2022/01/31 04:42:19;;;;;;;1.60;0.82;;;;;;;-0.55;89.84;96315.44;1842554;77;20861;-65
2022/01/31 04:44:48;;;;;;;2.05;0.68;;;;;;;-0.52;89.87;96330.70;1835095;77;20962;-66
2022/01/31 04:47:14;;;;;;;1.22;0.80;;;;;;;-0.51;88.68;96321.75;1849279;77;20959;-65
2022/01/31 04:49:40;;;;;;;1.47;0.78;;;;;;;-0.47;88.79;96332.00;1842504;77;21131;-64
2022/01/31 04:52:07;;;;;;;1.37;0.78;;;;;;;-0.48;88.64;96333.59;1849073;77;20956;-66
2022/01/31 04:54:33;;;;;;;1.90;0.80;;;;;;;-0.49;90.05;96339.37;1842414;77;21406;-61
2022/01/31 04:56:59;;;;;;;2.17;0.70;;;;;;;-0.52;92.02;96343.85;1849417;77;21362;-60
2022/01/31 04:59:26;;;;;;;1.35;0.55;;;;;;;-0.57;92.19;96332.00;1849550;77;20915;-66
2022/01/31 05:01:53;;;;;;;1.07;0.70;;;;;;;-0.58;92.69;96342.76;1836656;77;21117;-62
2022/01/31 05:04:19;;;;;;;1.95;0.75;;;;;;;-0.61;92.67;96354.59;1835423;77;21528;-66
2022/01/31 05:06:47;;;;;;;1.80;0.80;;;;;;;-0.62;93.19;96354.34;1832231;77;20975;-62
2022/01/31 05:09:14;;;;;;;3.40;0.80;;;;;;;-0.64;93.79;96363.02;1849053;77;20991;-61
2022/01/31 05:11:41;;;;;;;1.10;0.62;;;;;;;-0.66;93.75;96354.59;1839594;77;21406;-67
2022/01/31 05:14:07;;;;;;;2.50;0.70;;;;;;;-0.67;93.58;96322.77;1834254;77;21105;-62
2022/01/31 05:16:33;;;;;;;2.42;0.80;;;;;;;-0.72;92.88;96366.13;1836320;77;20860;-62
2022/01/31 05:19:01;;;;;;;2.75;0.42;;;;;;;-0.74;92.27;96372.17;1844457;77;21375;-67
2022/01/31 05:21:28;;;;;;;1.42;0.53;;;;;;;-0.75;91.57;96354.80;1849047;77;20980;-65
2022/01/31 05:23:54;;;;;;;3.02;0.90;;;;;;;-0.78;91.54;96356.66;1834939;77;21390;-64
2022/01/31 05:26:20;;;;;;;2.87;0.78;;;;;;;-0.79;91.06;96359.80;1851948;77;21112;-66
2022/01/31 05:28:47;;;;;;;2.83;1.02;;;;;;;-0.76;90.81;96347.98;1837798;77;21466;-61
2022/01/31 05:31:13;;;;;;;2.30;0.90;;;;;;;-0.76;90.48;96363.76;1834473;77;20915;-65
2022/01/31 05:33:39;;;;;;;1.60;0.90;;;;;;;-0.75;89.95;96366.63;1842141;77;20884;-65
2022/01/31 05:36:07;;;;;;;3.42;0.98;;;;;;;-0.75;89.76;96352.17;1831067;77;20918;-62
2022/01/31 05:38:38;;;;;;;1.85;0.90;;;;;;;-0.75;89.45;96360.86;1847356;77;20962;-63
2022/01/31 05:41:06;;;;;;;1.92;0.88;;;;;;;-0.73;89.45;96364.02;1833110;77;20865;-67
2022/01/31 05:43:31;;;;;;;2.05;0.90;;;;;;;-0.70;88.93;96366.66;1836555;77;20857;-66
2022/01/31 05:45:57;;;;;;;1.87;0.80;;;;;;;-0.67;89.16;96370.09;1841083;77;20963;-61
2022/01/31 05:48:24;;;;;;;2.75;0.93;;;;;;;-0.67;88.61;96380.61;1836749;77;20906;-66
2022/01/31 05:50:51;;;;;;;2.15;0.90;;;;;;;-0.66;88.58;96378.27;1832356;77;21108;-63
2022/01/31 05:53:17;;;;;;;1.67;0.80;;;;;;;-0.62;88.55;96369.31;1842582;77;21398;-61
2022/01/31 05:55:45;;;;;;;2.17;0.93;;;;;;;-0.62;88.09;96375.38;1832511;77;20891;-67
2022/01/31 05:58:12;;;;;;;2.50;1.00;;;;;;;-0.60;88.03;96388.25;1836467;77;20906;-66
2022/01/31 06:00:38;;;;;;;1.30;0.70;;;;;;;-0.59;87.59;96370.92;1842746;77;21528;-61
2022/01/31 06:03:05;;;;;;;5.05;1.17;;;;;;;-0.59;87.65;96380.13;1844183;77;21119;-60
2022/01/31 06:05:32;;;;;;;1.72;0.90;;;;;;;-0.58;87.51;96379.58;1844122;77;20844;-66
2022/01/31 06:08:00;;;;;;;2.12;0.98;;;;;;;-0.58;87.25;96382.20;1831074;77;20865;-66
2022/01/31 06:10:27;;;;;;;2.75;1.10;;;;;;;-0.57;87.39;96387.23;1833941;77;20994;-67
2022/01/31 06:12:55;;;;;;;2.08;1.05;;;;;;;-0.57;87.43;96391.17;1845792;77;20868;-66
2022/01/31 06:15:22;;;;;;;2.37;1.10;;;;;;;-0.54;87.62;96398.52;1849137;77;21123;-64
2022/01/31 06:17:49;;;;;;;1.55;1.10;;;;;;;-0.53;87.97;96390.92;1840583;77;20899;-62
2022/01/31 06:20:15;;;;;;;3.12;1.50;;;;;;;-0.53;88.45;96402.75;1844502;77;20908;-62
2022/01/31 06:22:50;;;;;;;4.08;1.30;;;;;;;-0.53;88.90;96400.64;1848983;77;20927;-68
2022/01/31 06:25:18;;;;;;;5.47;1.75;;;;;;;-0.52;89.36;96406.98;1843324;77;20865;-63
2022/01/31 06:27:45;;;;;;;5.08;1.42;;;;;;;-0.52;89.25;96408.29;1846558;77;21776;-68
2022/01/31 06:30:14;;;;;;;5.85;2.37;;;;;;;-0.52;89.34;96399.09;1848769;77;20868;-61
2022/01/31 06:32:43;;;;;;;4.72;1.90;;;;;;;-0.51;89.16;96396.70;1834416;77;20848;-69
2022/01/31 06:35:09;;;;;;;4.28;2.00;;;;;;;-0.50;88.32;96394.35;1841127;77;20952;-65
2022/01/31 06:37:36;;;;;;;4.08;1.77;;;;;;;-0.46;87.77;96396.72;1843320;77;20916;-63
2022/01/31 06:40:05;;;;;;;4.03;1.92;;;;;;;-0.43;87.91;96405.42;1839763;77;21126;-63
2022/01/31 06:42:32;;;;;;;3.45;1.50;;;;;;;-0.39;87.32;96388.58;1843236;77;21379;-65
2022/01/31 06:44:59;;;;;;;3.05;1.57;;;;;;;-0.37;85.87;96391.73;1835860;77;20952;-68
2022/01/31 06:47:27;;;;;;;4.20;2.02;;;;;;;-0.36;85.28;96405.17;1837666;77;20993;-66
2022/01/31 06:49:53;;;;;;;2.60;1.47;;;;;;;-0.37;84.96;96408.84;1837282;77;20869;-68
2022/01/31 06:52:20;;;;;;;3.35;1.67;;;;;;;-0.39;83.89;96399.90;1845791;77;22266;-68
2022/01/31 06:54:50;;;;;;;4.83;1.72;;;;;;;-0.41;82.81;96403.32;1839410;77;20928;-68
2022/01/31 06:57:15;;;;;;;3.42;1.60;;;;;;;-0.44;82.38;96395.14;1846683;77;20927;-67
2022/01/31 06:59:42;;;;;;;4.33;1.50;;;;;;;-0.44;81.49;96416.98;1838116;77;20959;-65
2022/01/31 07:02:08;;;;;;;3.95;1.77;;;;;;;-0.49;80.01;96401.18;1835841;77;20896;-67
2022/01/31 07:04:35;;;;;;;3.62;2.02;;;;;;;-0.47;79.74;96416.17;1843476;77;21087;-68
2022/01/31 07:07:03;;;;;;;3.80;1.45;;;;;;;-0.44;79.50;96421.45;1849156;77;20864;-65
2022/01/31 07:09:30;;;;;;;4.85;2.50;;;;;;;-0.40;79.37;96438.31;1837382;77;20880;-63
2022/01/31 07:12:00;;;;;;;3.67;2.02;;;;;;;-0.38;78.06;96421.74;1841819;77;20963;-65
2022/01/31 07:14:31;;;;;;;2.37;1.45;;;;;;;-0.37;77.58;96441.20;1840952;77;21443;-62
2022/01/31 07:17:02;;;;;;;1.80;1.20;;;;;;;-0.39;75.23;96414.38;1842952;77;21118;-65
2022/01/31 07:19:33;;;;;;;4.33;1.70;;;;;;;-0.39;75.30;96455.14;1811293;77;20967;-68
2022/01/31 07:21:59;;;;;;;2.30;1.10;;;;;;;-0.37;73.86;96453.05;1839252;77;20877;-63
2022/01/31 07:27:03;;;;;;;4.00;1.40;;;;;;;-0.32;73.17;96451.75;1838772;77;20845;-62
2022/01/31 07:29:30;;;;;;;3.22;1.20;;;;;;;-0.26;73.33;96449.39;1835225;77;21831;-63
2022/01/31 07:31:58;;;;;;;5.47;2.30;;;;;;;-0.15;72.97;96462.87;1839834;77;21051;-63
2022/01/31 07:34:25;;;;;;;4.58;1.27;;;;;;;-0.07;73.44;96455.77;1837983;77;21493;-67
2022/01/31 07:36:52;;;;;;;4.35;1.50;;;;;;;-0.05;72.98;96461.55;1823533;77;20864;-63
2022/01/31 07:39:19;;;;;;;3.10;1.10;;;;;;;0.00;73.34;96470.02;1827410;77;21387;-68
2022/01/31 07:41:47;;;;;;;3.70;1.30;;;;;;;0.00;73.24;96469.47;1846333;77;21292;-63
2022/01/31 07:44:15;;;;;;;3.98;1.37;;;;;;;-0.02;73.40;96468.94;1837457;77;20947;-65
2022/01/31 07:46:42;;;;;;;2.45;1.32;;;;;;;-0.02;73.17;96474.20;1843965;77;20962;-68
2022/01/31 07:49:09;;;;;;;4.92;1.70;;;;;;;0.03;73.48;96477.89;1835558;77;21367;-70
2022/01/31 07:51:39;;;;;;;4.10;1.50;;;;;;;0.11;73.19;96473.45;1839504;77;21350;-62
2022/01/31 07:54:04;;;;;;;5.45;1.85;;;;;;;0.16;72.73;96480.05;1841110;77;21109;-63
2022/01/31 07:56:31;;;;;;;3.30;1.80;;;;;;;0.19;72.91;96483.48;1838519;77;20900;-71
2022/01/31 07:58:58;;;;;;;3.40;1.50;;;;;;;0.22;73.84;96496.91;1838508;77;21003;-67
2022/01/31 08:01:26;;;;;;;4.42;1.55;;;;;;;0.19;72.99;96500.05;1837938;77;21010;-66
2022/01/31 08:03:53;;;;;;;5.22;1.40;;;;;;;0.15;72.77;96495.05;1841008;77;20833;-62
2022/01/31 08:06:26;;;;;;;3.83;1.70;;;;;;;0.20;72.39;96507.43;1837370;77;21371;-63
2022/01/31 08:08:54;;;;;;;3.08;1.40;;;;;;;0.32;72.11;96502.72;1817428;78;20904;-63
2022/01/31 08:11:30;;;;;;;2.20;1.00;;;;;;;0.47;71.53;96493.53;1816554;78;20994;-70
2022/01/31 08:13:59;;;;;;;4.30;1.70;;;;;;;0.61;71.49;96503.82;1814879;78;21487;-66
2022/01/31 08:16:22;;;;;;;3.37;1.30;;;;;;;0.76;71.08;96507.77;1815728;78;20964;-64
2022/01/31 08:18:48;;;;;;;3.45;1.52;;;;;;;0.86;70.08;96510.41;1816136;79;21893;-64
2022/01/31 08:21:15;;;;;;;3.15;1.70;;;;;;;0.90;69.14;96506.18;1815880;78;21108;-66
2022/01/31 08:23:42;;;;;;;4.47;1.60;;;;;;;0.83;69.55;96516.20;1815985;78;20888;-67
2022/01/31 08:26:12;;;;;;;4.65;1.75;;;;;;;0.89;70.11;96521.75;1820089;78;21052;-70
2022/01/31 08:28:53;;;;;;;3.30;1.47;;;;;;;1.02;69.93;96526.48;1820514;78;20964;-65
2022/01/31 08:31:17;;;;;;;3.75;1.50;;;;;;;1.15;69.19;96518.05;1831558;77;21117;-71
2022/01/31 08:33:50;;;;;;;4.00;1.70;;;;;;;1.24;69.10;96519.09;1843342;77;20903;-66
2022/01/31 08:36:11;;;;;;;4.40;1.72;;;;;;;1.33;68.62;96530.67;1842841;77;20841;-68
2022/01/31 08:38:41;;;;;;;2.80;1.30;;;;;;;1.44;68.18;96522.75;1817599;77;21458;-67
2022/01/31 08:41:09;;;;;;;3.95;1.50;;;;;;;1.44;68.10;96527.47;1839738;77;21413;-64
2022/01/31 08:43:36;;;;;;;5.08;1.90;;;;;;;1.42;68.40;96522.20;1822981;77;21110;-62
2022/01/31 08:46:04;;;;;;;3.52;1.75;;;;;;;1.43;68.88;96519.84;1824097;77;20997;-72
2022/01/31 08:48:32;;;;;;;7.62;2.00;;;;;;;1.39;68.42;96511.65;1845714;77;20880;-67
2022/01/31 08:50:59;;;;;;;3.15;1.75;;;;;;;1.39;68.95;96516.92;1843646;77;20852;-69
2022/01/31 08:53:26;;;;;;;4.85;1.87;;;;;;;1.48;69.18;96517.19;1837415;77;20877;-70
2022/01/31 08:55:57;;;;;;;2.77;1.72;;;;;;;1.55;68.68;96525.62;1835296;77;21506;-70
2022/01/31 08:58:24;;;;;;;7.45;1.95;;;;;;;1.58;68.49;96525.09;1848917;77;20999;-67
2022/01/31 09:00:59;;;;;;;3.95;2.05;;;;;;;1.74;67.73;96535.34;1773698;80;20901;-69
2022/01/31 09:03:40;;;;;;;5.00;1.87;;;;;;;1.85;67.70;96536.08;1803524;79;20889;-69
2022/01/31 09:05:49;;;;;;;3.67;1.55;;;;;;;1.88;67.27;96540.30;1796363;79;20904;-68
2022/01/31 09:08:16;;;;;;;4.90;2.37;;;;;;;1.93;67.19;96535.53;1776880;79;21180;-64
2022/01/31 09:10:44;;;;;;;3.12;1.67;;;;;;;1.86;67.37;96532.39;1783268;80;20869;-64
2022/01/31 09:13:13;;;;;;;5.90;2.10;;;;;;;1.77;67.63;96522.10;1777192;80;20861;-61
2022/01/31 09:15:42;;;;;;;4.50;1.80;;;;;;;1.69;67.88;96522.67;1780957;80;20882;-63
2022/01/31 09:18:09;;;;;;;3.25;1.60;;;;;;;1.59;68.45;96517.41;1778195;79;21423;-65
2022/01/31 09:20:36;;;;;;;3.20;1.67;;;;;;;1.53;68.65;96521.14;1778194;79;21117;-62
2022/01/31 09:23:04;;;;;;;6.97;2.77;;;;;;;1.56;69.38;96532.45;1793589;80;20949;-65
2022/01/31 09:25:31;;;;;;;5.37;2.52;;;;;;;1.53;69.65;96523.78;1782066;80;20924;-62
2022/01/31 09:27:59;;;;;;;4.42;2.42;;;;;;;1.41;70.34;96537.78;1789343;80;20916;-62
2022/01/31 09:32:56;;;;;;;4.08;2.10;;;;;;;1.31;71.67;96526.20;1878760;76;27908;-63
2022/01/31 09:35:26;;;;;;;5.20;2.15;;;;;;;1.16;72.26;96528.84;1846282;77;21359;-61
2022/01/31 09:37:53;;;;;;;6.05;2.37;;;;;;;1.10;72.70;96533.87;1789015;79;21097;-60
2022/01/31 09:40:21;;;;;;;5.22;1.85;;;;;;;1.15;73.10;96521.20;1783434;80;20916;-61
2022/01/31 09:43:28;;;;;;;3.90;2.27;;;;;;;1.14;72.79;96519.09;1783488;80;20975;-65
2022/01/31 09:48:33;;;;;;;7.65;2.20;;;;;;;1.00;72.97;96522.52;1791028;77;20951;-68
2022/01/31 09:51:11;;;;;;;4.15;1.90;;;;;;;0.89;73.84;96538.09;1778321;80;21122;-68
2022/01/31 09:53:48;;;;;;;4.33;2.08;;;;;;;0.78;74.52;96524.10;1777395;80;21676;-67
2022/01/31 09:56:19;;;;;;;4.55;2.25;;;;;;;0.75;74.88;96513.31;1778319;80;20928;-63
2022/01/31 09:58:46;;;;;;;2.62;1.45;;;;;;;0.73;74.94;96531.23;1778616;80;21526;-64
2022/01/31 10:01:15;;;;;;;4.20;1.90;;;;;;;0.63;75.37;96539.92;1779073;80;20893;-68
2022/01/31 10:03:49;;;;;;;3.67;1.90;;;;;;;0.50;77.09;96556.22;1779950;80;21087;-70
2022/01/31 10:06:24;;;;;;;3.80;1.70;;;;;;;0.27;80.70;96551.42;1779688;80;21509;-70
2022/01/31 10:09:18;;;;;;;2.90;1.40;;;;;;;0.00;80.63;96555.02;1779644;80;21052;-63
2022/01/31 10:17:38;;;;;;;2.12;1.05;;;;;;;-0.55;84.79;96588.16;1813665;77;21188;-64
2022/01/31 10:20:18;;;;;;;3.65;1.30;;;;;;;-0.76;85.44;96563.58;1762818;80;20849;-62
2022/01/31 10:22:46;;;;;;;3.25;1.25;;;;;;;-0.92;85.92;96565.83;1777171;80;20980;-67
2022/01/31 10:25:16;;;;;;;3.22;1.90;;;;;;;-0.98;85.99;96566.30;1763988;80;20858;-66
2022/01/31 10:27:52;;;;;;;3.08;1.77;;;;;;;-1.00;86.49;96562.34;1788469;80;21411;-68
2022/01/31 10:30:21;;;;;;;;;;;;;;;-1.02;88.36;96555.23;1791042;80;21127;-65
2022/01/31 10:32:49;;;;;;;5.55;2.25;;;;;;;-1.08;89.35;96547.81;1773370;80;20092;-67
2022/01/31 10:35:22;;;;;;;3.92;1.92;;;;;;;-1.10;90.21;96542.53;1755975;81;20971;-65
2022/01/31 10:37:50;;;;;;;4.65;1.85;;;;;;;-1.03;90.58;96541.80;1766472;81;20987;-58
2022/01/31 10:46:04;;;;;;;5.67;2.92;;;;;;;-0.83;91.66;96531.45;1771612;80;21376;-75
2022/01/31 10:51:53;;;;;;;8.53;3.33;;;;;;;-0.62;91.28;96538.42;1832913;78;20904;-72
2022/01/31 10:54:15;;;;;;;6.60;3.40;;;;;;;-0.55;90.89;96529.78;1829500;78;21441;-66
2022/01/31 10:57:07;;;;;;;8.03;3.27;;;;;;;-0.44;90.73;96535.88;1832296;78;21262;-67
2022/01/31 10:59:42;;;;;;;6.47;3.58;;;;;;;-0.29;90.54;96535.44;1832714;78;21311;-64
2022/01/31 11:02:22;;;;;;;11.38;3.52;;;;;;;-0.15;90.08;96540.50;1835796;78;20968;-71
2022/01/31 11:04:50;;;;;;;8.00;3.47;;;;;;;-0.08;89.59;96527.90;1834717;78;20905;-72
2022/01/31 11:07:22;;;;;;;7.12;3.25;;;;;;;0.06;89.03;96527.41;1840824;78;21530;-66
2022/01/31 11:09:50;;;;;;;11.15;3.83;;;;;;;0.15;88.32;96521.89;1840842;78;22273;-66
2022/01/31 11:12:22;;;;;;;8.60;3.77;;;;;;;0.28;87.92;96524.05;1840734;78;20979;-63
2022/01/31 11:14:47;;;;;;;9.55;3.65;;;;;;;0.40;87.71;96511.44;1840674;77;21459;-65
2022/01/31 11:17:17;;;;;;;10.95;3.90;;;;;;;0.50;86.53;96516.70;1840614;78;21489;-69
2022/01/31 11:19:48;;;;;;;11.73;3.87;;;;;;;0.56;86.14;96522.26;1840894;78;21415;-70
2022/01/31 11:22:16;;;;;;;8.23;3.17;;;;;;;0.57;83.33;96510.65;1841042;78;21642;-67
2022/01/31 11:24:49;;;;;;;11.65;4.00;;;;;;;0.57;83.64;96508.81;1832505;77;20999;-69
2022/01/31 11:27:20;;;;;;;14.63;7.72;;;;;;;0.64;83.18;96509.86;1838473;78;20967;-66
2022/01/31 11:29:49;;;;;;;11.80;5.15;;;;;;;0.68;82.56;96511.70;1839613;77;20909;-64
2022/01/31 11:32:16;;;;;;;9.45;2.80;;;;;;;0.77;82.57;96505.41;1841423;77;20959;-64
2022/01/31 11:34:44;;;;;;;7.75;2.67;;;;;;;0.85;80.84;96514.09;1850272;77;21113;-67
2022/01/31 11:37:14;;;;;;;10.50;3.15;;;;;;;0.84;79.96;96515.16;1849463;77;20983;-67
2022/01/31 11:39:46;;;;;;;9.95;3.10;;;;;;;0.79;80.26;96496.70;1850309;77;20875;-64
2022/01/31 11:42:13;;;;;;;5.97;2.67;;;;;;;0.78;79.71;96487.75;1850170;77;20923;-70
2022/01/31 11:44:55;;;;;;;6.70;2.72;;;;;;;0.78;79.95;96490.39;1850249;77;20899;-67
2022/01/31 11:47:23;;;;;;;13.95;3.08;;;;;;;0.77;79.70;96500.14;1850439;77;21108;-66
2022/01/31 11:49:58;;;;;;;7.75;3.02;;;;;;;0.73;79.19;96503.02;1849302;77;20986;-66
2022/01/31 11:52:27;;;;;;;6.60;2.67;;;;;;;0.66;79.06;96498.01;1850123;77;21540;-70
2022/01/31 11:55:00;;;;;;;8.53;3.02;;;;;;;0.57;78.82;96507.49;1812393;77;20926;-69
2022/01/31 11:57:32;;;;;;;5.83;2.62;;;;;;;0.51;79.46;96495.91;1809214;79;21491;-65
2022/01/31 12:00:12;;;;;;;7.22;2.47;;;;;;;0.48;79.73;96501.69;1810205;79;21219;-66
2022/01/31 12:02:50;;;;;;;8.63;3.00;;;;;;;0.43;79.81;96499.04;1810192;79;21336;-63
2022/01/31 12:05:22;;;;;;;7.95;3.40;;;;;;;0.45;79.78;96510.90;1810163;79;20934;-62